sensor_id;sensor_type;location;lat;lon;timestamp;temperature;humidity
14182;DHT22;7171;50.936;6.764;2023-09-19T00:00:31;17.80;99.90
14182;DHT22;7171;50.936;6.764;2023-09-19T00:02:59;17.90;99.90
14182;DHT22;7171;50.936;6.764;2023-09-19T00:05:28;17.90;99.90
14182;DHT22;7171;50.936;6.764;2023-09-19T00:07:56;18.00;99.90
14182;DHT22;7171;50.936;6.764;2023-09-19T00:10:24;18.00;99.90
14182;DHT22;7171;50.936;6.764;2023-09-19T00:12:52;18.00;99.90
14182;DHT22;7171;50.936;6.764;2023-09-19T00:15:21;18.10;99.90
14182;DHT22;7171;50.936;6.764;2023-09-19T00:17:48;18.10;99.90
14182;DHT22;7171;50.936;6.764;2023-09-19T00:20:18;18.20;99.90
14182;DHT22;7171;50.936;6.764;2023-09-19T00:22:48;18.20;99.90
14182;DHT22;7171;50.936;6.764;2023-09-19T00:25:16;18.30;99.90
14182;DHT22;7171;50.936;6.764;2023-09-19T00:27:43;18.30;99.90
14182;DHT22;7171;50.936;6.764;2023-09-19T00:30:12;18.30;99.90
14182;DHT22;7171;50.936;6.764;2023-09-19T00:32:45;18.30;99.90
14182;DHT22;7171;50.936;6.764;2023-09-19T00:35:13;18.40;99.90
14182;DHT22;7171;50.936;6.764;2023-09-19T00:37:41;18.40;99.90
14182;DHT22;7171;50.936;6.764;2023-09-19T00:40:10;18.40;99.90
14182;DHT22;7171;50.936;6.764;2023-09-19T00:42:38;18.40;99.90
14182;DHT22;7171;50.936;6.764;2023-09-19T00:45:06;18.50;99.90
14182;DHT22;7171;50.936;6.764;2023-09-19T00:47:35;18.50;99.90
14182;DHT22;7171;50.936;6.764;2023-09-19T00:50:04;18.50;99.90
14182;DHT22;7171;50.936;6.764;2023-09-19T00:52:33;18.40;99.90
14182;DHT22;7171;50.936;6.764;2023-09-19T00:55:02;18.40;99.90
14182;DHT22;7171;50.936;6.764;2023-09-19T00:57:30;18.40;99.90
14182;DHT22;7171;50.936;6.764;2023-09-19T01:00:00;18.40;99.90
14182;DHT22;7171;50.936;6.764;2023-09-19T01:02:31;18.50;99.90
14182;DHT22;7171;50.936;6.764;2023-09-19T01:04:58;18.50;99.90
14182;DHT22;7171;50.936;6.764;2023-09-19T01:07:24;18.50;99.90
14182;DHT22;7171;50.936;6.764;2023-09-19T01:09:51;18.50;99.90
14182;DHT22;7171;50.936;6.764;2023-09-19T01:15:13;18.50;99.90
14182;DHT22;7171;50.936;6.764;2023-09-19T01:17:46;18.40;99.90
14182;DHT22;7171;50.936;6.764;2023-09-19T01:20:22;18.30;99.90
14182;DHT22;7171;50.936;6.764;2023-09-19T01:23:02;18.30;99.90
14182;DHT22;7171;50.936;6.764;2023-09-19T01:25:56;18.20;99.90
14182;DHT22;7171;50.936;6.764;2023-09-19T01:28:52;18.10;99.90
14182;DHT22;7171;50.936;6.764;2023-09-19T01:31:25;18.10;99.90
14182;DHT22;7171;50.936;6.764;2023-09-19T01:33:56;18.00;99.90
14182;DHT22;7171;50.936;6.764;2023-09-19T01:36:27;17.90;99.90
14182;DHT22;7171;50.936;6.764;2023-09-19T01:38:56;17.90;99.90
14182;DHT22;7171;50.936;6.764;2023-09-19T01:41:28;17.80;99.90
14182;DHT22;7171;50.936;6.764;2023-09-19T01:44:00;17.80;99.90
14182;DHT22;7171;50.936;6.764;2023-09-19T01:46:34;17.70;99.90
14182;DHT22;7171;50.936;6.764;2023-09-19T01:49:14;17.70;99.90
14182;DHT22;7171;50.936;6.764;2023-09-19T01:51:46;17.70;99.90
14182;DHT22;7171;50.936;6.764;2023-09-19T01:54:22;17.70;99.90
14182;DHT22;7171;50.936;6.764;2023-09-19T01:56:59;17.60;99.90
14182;DHT22;7171;50.936;6.764;2023-09-19T01:59:35;17.60;99.90
14182;DHT22;7171;50.936;6.764;2023-09-19T02:02:06;17.60;99.90
14182;DHT22;7171;50.936;6.764;2023-09-19T02:04:34;17.30;99.90
14182;DHT22;7171;50.936;6.764;2023-09-19T02:07:00;17.70;99.90
14182;DHT22;7171;50.936;6.764;2023-09-19T02:09:27;17.70;99.90
14182;DHT22;7171;50.936;6.764;2023-09-19T02:11:54;17.60;99.90
14182;DHT22;7171;50.936;6.764;2023-09-19T02:14:21;17.60;99.90
14182;DHT22;7171;50.936;6.764;2023-09-19T02:16:48;17.60;99.90
14182;DHT22;7171;50.936;6.764;2023-09-19T02:19:16;17.50;99.90
14182;DHT22;7171;50.936;6.764;2023-09-19T02:21:43;17.50;99.90
14182;DHT22;7171;50.936;6.764;2023-09-19T02:24:10;17.50;99.90
14182;DHT22;7171;50.936;6.764;2023-09-19T02:26:38;17.50;99.90
14182;DHT22;7171;50.936;6.764;2023-09-19T02:29:04;17.40;99.90
14182;DHT22;7171;50.936;6.764;2023-09-19T02:31:31;17.40;99.90
14182;DHT22;7171;50.936;6.764;2023-09-19T02:33:58;17.40;99.90
14182;DHT22;7171;50.936;6.764;2023-09-19T02:36:27;17.40;99.90
14182;DHT22;7171;50.936;6.764;2023-09-19T02:38:55;17.30;99.90
14182;DHT22;7171;50.936;6.764;2023-09-19T02:41:22;17.30;99.90
14182;DHT22;7171;50.936;6.764;2023-09-19T02:43:49;17.30;99.90
14182;DHT22;7171;50.936;6.764;2023-09-19T02:46:16;17.30;99.90
14182;DHT22;7171;50.936;6.764;2023-09-19T02:48:43;17.30;99.90
14182;DHT22;7171;50.936;6.764;2023-09-19T02:51:11;17.30;99.90
14182;DHT22;7171;50.936;6.764;2023-09-19T02:53:40;17.30;99.90
14182;DHT22;7171;50.936;6.764;2023-09-19T02:56:07;17.30;99.90
14182;DHT22;7171;50.936;6.764;2023-09-19T02:58:35;17.30;99.90
14182;DHT22;7171;50.936;6.764;2023-09-19T03:01:08;17.20;99.90
14182;DHT22;7171;50.936;6.764;2023-09-19T03:03:36;17.20;99.90
14182;DHT22;7171;50.936;6.764;2023-09-19T03:06:05;17.20;99.90
14182;DHT22;7171;50.936;6.764;2023-09-19T03:08:34;17.20;99.90
14182;DHT22;7171;50.936;6.764;2023-09-19T03:11:04;17.10;99.90
14182;DHT22;7171;50.936;6.764;2023-09-19T03:13:33;17.10;99.90
14182;DHT22;7171;50.936;6.764;2023-09-19T03:16:02;17.10;99.90
14182;DHT22;7171;50.936;6.764;2023-09-19T03:18:31;17.00;99.90
14182;DHT22;7171;50.936;6.764;2023-09-19T03:20:58;17.00;99.90
14182;DHT22;7171;50.936;6.764;2023-09-19T03:23:26;17.00;99.90
14182;DHT22;7171;50.936;6.764;2023-09-19T03:25:53;17.00;99.90
14182;DHT22;7171;50.936;6.764;2023-09-19T03:28:23;17.00;99.90
14182;DHT22;7171;50.936;6.764;2023-09-19T03:30:58;17.00;99.90
14182;DHT22;7171;50.936;6.764;2023-09-19T03:33:26;16.90;99.90
14182;DHT22;7171;50.936;6.764;2023-09-19T03:35:53;16.90;99.90
14182;DHT22;7171;50.936;6.764;2023-09-19T03:38:20;16.90;99.90
14182;DHT22;7171;50.936;6.764;2023-09-19T03:40:47;16.90;99.90
14182;DHT22;7171;50.936;6.764;2023-09-19T03:43:14;16.90;99.90
14182;DHT22;7171;50.936;6.764;2023-09-19T03:45:42;16.90;99.90
14182;DHT22;7171;50.936;6.764;2023-09-19T03:48:10;16.90;99.90
14182;DHT22;7171;50.936;6.764;2023-09-19T03:50:37;16.90;99.90
14182;DHT22;7171;50.936;6.764;2023-09-19T03:53:04;16.90;99.90
14182;DHT22;7171;50.936;6.764;2023-09-19T03:55:32;16.90;99.90
14182;DHT22;7171;50.936;6.764;2023-09-19T03:58:00;17.00;99.90
14182;DHT22;7171;50.936;6.764;2023-09-19T04:00:27;17.00;99.90
14182;DHT22;7171;50.936;6.764;2023-09-19T04:02:57;17.00;99.90
14182;DHT22;7171;50.936;6.764;2023-09-19T04:05:24;17.00;99.90
14182;DHT22;7171;50.936;6.764;2023-09-19T04:07:51;17.00;99.90
14182;DHT22;7171;50.936;6.764;2023-09-19T04:10:18;17.00;99.90
14182;DHT22;7171;50.936;6.764;2023-09-19T04:12:51;17.00;99.90
14182;DHT22;7171;50.936;6.764;2023-09-19T04:15:19;16.90;99.90
14182;DHT22;7171;50.936;6.764;2023-09-19T04:17:48;17.00;99.90
14182;DHT22;7171;50.936;6.764;2023-09-19T04:20:16;17.00;99.90
14182;DHT22;7171;50.936;6.764;2023-09-19T04:22:45;17.00;99.90
14182;DHT22;7171;50.936;6.764;2023-09-19T04:25:12;17.10;99.90
14182;DHT22;7171;50.936;6.764;2023-09-19T04:27:39;17.10;99.90
14182;DHT22;7171;50.936;6.764;2023-09-19T04:30:08;17.10;99.90
14182;DHT22;7171;50.936;6.764;2023-09-19T04:32:37;17.20;99.90
14182;DHT22;7171;50.936;6.764;2023-09-19T04:35:06;17.40;99.90
14182;DHT22;7171;50.936;6.764;2023-09-19T04:37:37;17.50;99.90
14182;DHT22;7171;50.936;6.764;2023-09-19T04:40:06;17.60;99.90
14182;DHT22;7171;50.936;6.764;2023-09-19T04:42:38;17.60;99.90
14182;DHT22;7171;50.936;6.764;2023-09-19T04:45:06;17.60;99.90
14182;DHT22;7171;50.936;6.764;2023-09-19T04:47:34;17.70;99.90
14182;DHT22;7171;50.936;6.764;2023-09-19T04:50:01;17.70;99.90
14182;DHT22;7171;50.936;6.764;2023-09-19T04:52:30;17.70;99.90
14182;DHT22;7171;50.936;6.764;2023-09-19T04:54:59;17.70;99.90
14182;DHT22;7171;50.936;6.764;2023-09-19T04:57:25;17.70;99.90
14182;DHT22;7171;50.936;6.764;2023-09-19T04:59:53;17.60;99.90
14182;DHT22;7171;50.936;6.764;2023-09-19T05:02:20;17.50;99.90
14182;DHT22;7171;50.936;6.764;2023-09-19T05:04:47;17.50;99.90
14182;DHT22;7171;50.936;6.764;2023-09-19T05:07:14;17.50;99.90
14182;DHT22;7171;50.936;6.764;2023-09-19T05:09:42;17.50;99.90
14182;DHT22;7171;50.936;6.764;2023-09-19T05:12:10;17.50;99.90
14182;DHT22;7171;50.936;6.764;2023-09-19T05:14:37;17.50;99.90
14182;DHT22;7171;50.936;6.764;2023-09-19T05:17:06;17.50;99.90
14182;DHT22;7171;50.936;6.764;2023-09-19T05:19:33;17.50;99.90
14182;DHT22;7171;50.936;6.764;2023-09-19T05:22:00;17.60;99.90
14182;DHT22;7171;50.936;6.764;2023-09-19T05:24:29;17.60;99.90
14182;DHT22;7171;50.936;6.764;2023-09-19T05:26:56;17.60;99.90
14182;DHT22;7171;50.936;6.764;2023-09-19T05:29:25;17.70;99.90
14182;DHT22;7171;50.936;6.764;2023-09-19T05:31:52;17.70;99.90
14182;DHT22;7171;50.936;6.764;2023-09-19T05:34:20;17.70;99.90
14182;DHT22;7171;50.936;6.764;2023-09-19T05:36:47;17.80;99.90
14182;DHT22;7171;50.936;6.764;2023-09-19T05:39:14;17.80;99.90
14182;DHT22;7171;50.936;6.764;2023-09-19T05:41:41;17.90;99.90
14182;DHT22;7171;50.936;6.764;2023-09-19T05:44:08;18.00;99.90
14182;DHT22;7171;50.936;6.764;2023-09-19T05:46:36;18.00;99.90
14182;DHT22;7171;50.936;6.764;2023-09-19T05:49:03;17.90;99.90
14182;DHT22;7171;50.936;6.764;2023-09-19T05:51:30;17.90;99.90
14182;DHT22;7171;50.936;6.764;2023-09-19T05:53:56;17.90;99.90
14182;DHT22;7171;50.936;6.764;2023-09-19T05:56:23;17.80;99.90
14182;DHT22;7171;50.936;6.764;2023-09-19T05:58:51;17.80;99.90
14182;DHT22;7171;50.936;6.764;2023-09-19T06:01:19;17.80;99.90
14182;DHT22;7171;50.936;6.764;2023-09-19T06:03:47;17.70;99.90
14182;DHT22;7171;50.936;6.764;2023-09-19T06:06:14;17.70;99.90
14182;DHT22;7171;50.936;6.764;2023-09-19T06:08:41;17.70;99.90
14182;DHT22;7171;50.936;6.764;2023-09-19T06:11:10;17.60;99.90
14182;DHT22;7171;50.936;6.764;2023-09-19T06:13:37;17.60;99.90
14182;DHT22;7171;50.936;6.764;2023-09-19T06:16:05;17.50;99.90
14182;DHT22;7171;50.936;6.764;2023-09-19T06:18:32;17.50;99.90
14182;DHT22;7171;50.936;6.764;2023-09-19T06:21:01;17.50;99.90
14182;DHT22;7171;50.936;6.764;2023-09-19T06:23:31;17.50;99.90
14182;DHT22;7171;50.936;6.764;2023-09-19T06:25:57;17.40;99.90
14182;DHT22;7171;50.936;6.764;2023-09-19T06:28:24;17.40;99.90
14182;DHT22;7171;50.936;6.764;2023-09-19T06:30:53;17.50;99.90
14182;DHT22;7171;50.936;6.764;2023-09-19T06:33:20;17.50;99.90
14182;DHT22;7171;50.936;6.764;2023-09-19T06:35:47;17.50;99.90
14182;DHT22;7171;50.936;6.764;2023-09-19T06:38:15;17.50;99.90
14182;DHT22;7171;50.936;6.764;2023-09-19T06:40:44;17.50;99.90
14182;DHT22;7171;50.936;6.764;2023-09-19T06:43:11;17.50;99.90
14182;DHT22;7171;50.936;6.764;2023-09-19T06:45:39;17.60;99.90
14182;DHT22;7171;50.936;6.764;2023-09-19T06:48:08;17.60;99.90
14182;DHT22;7171;50.936;6.764;2023-09-19T06:50:35;17.60;99.90
14182;DHT22;7171;50.936;6.764;2023-09-19T06:53:02;17.60;99.90
14182;DHT22;7171;50.936;6.764;2023-09-19T06:55:31;17.60;99.90
14182;DHT22;7171;50.936;6.764;2023-09-19T06:57:57;17.60;99.90
14182;DHT22;7171;50.936;6.764;2023-09-19T07:00:24;17.60;99.90
14182;DHT22;7171;50.936;6.764;2023-09-19T07:02:58;17.60;99.90
14182;DHT22;7171;50.936;6.764;2023-09-19T07:05:26;17.70;99.90
14182;DHT22;7171;50.936;6.764;2023-09-19T07:07:54;17.70;99.90
14182;DHT22;7171;50.936;6.764;2023-09-19T07:10:21;17.80;99.90
14182;DHT22;7171;50.936;6.764;2023-09-19T07:12:55;17.80;99.90
14182;DHT22;7171;50.936;6.764;2023-09-19T07:15:22;17.90;99.90
14182;DHT22;7171;50.936;6.764;2023-09-19T07:17:50;17.90;99.90
14182;DHT22;7171;50.936;6.764;2023-09-19T07:20:18;17.90;99.90
14182;DHT22;7171;50.936;6.764;2023-09-19T07:22:45;18.00;99.90
14182;DHT22;7171;50.936;6.764;2023-09-19T07:25:12;18.00;99.90
14182;DHT22;7171;50.936;6.764;2023-09-19T07:27:39;18.00;99.90
14182;DHT22;7171;50.936;6.764;2023-09-19T07:30:08;18.10;99.90
14182;DHT22;7171;50.936;6.764;2023-09-19T07:32:35;18.10;99.90
14182;DHT22;7171;50.936;6.764;2023-09-19T07:35:04;18.10;99.90
14182;DHT22;7171;50.936;6.764;2023-09-19T07:37:31;18.20;99.90
14182;DHT22;7171;50.936;6.764;2023-09-19T07:39:59;18.20;99.90
14182;DHT22;7171;50.936;6.764;2023-09-19T07:42:26;18.30;99.90
14182;DHT22;7171;50.936;6.764;2023-09-19T07:44:53;18.30;99.90
14182;DHT22;7171;50.936;6.764;2023-09-19T07:47:21;18.40;99.90
14182;DHT22;7171;50.936;6.764;2023-09-19T07:49:48;18.50;99.90
14182;DHT22;7171;50.936;6.764;2023-09-19T07:52:14;18.50;99.90
14182;DHT22;7171;50.936;6.764;2023-09-19T07:54:42;18.60;99.90
14182;DHT22;7171;50.936;6.764;2023-09-19T07:57:09;18.60;99.90
14182;DHT22;7171;50.936;6.764;2023-09-19T07:59:37;18.70;99.90
14182;DHT22;7171;50.936;6.764;2023-09-19T08:02:04;18.70;99.90
14182;DHT22;7171;50.936;6.764;2023-09-19T08:04:35;18.80;99.90
14182;DHT22;7171;50.936;6.764;2023-09-19T08:07:02;18.80;99.90
14182;DHT22;7171;50.936;6.764;2023-09-19T08:09:29;18.80;99.90
14182;DHT22;7171;50.936;6.764;2023-09-19T08:11:58;18.90;99.90
14182;DHT22;7171;50.936;6.764;2023-09-19T08:14:28;18.90;99.90
14182;DHT22;7171;50.936;6.764;2023-09-19T08:16:56;18.90;99.90
14182;DHT22;7171;50.936;6.764;2023-09-19T08:19:24;18.90;99.90
14182;DHT22;7171;50.936;6.764;2023-09-19T08:21:55;19.00;99.90
14182;DHT22;7171;50.936;6.764;2023-09-19T08:24:24;19.00;99.90
14182;DHT22;7171;50.936;6.764;2023-09-19T08:26:52;19.00;99.90
14182;DHT22;7171;50.936;6.764;2023-09-19T08:29:20;19.10;99.90
14182;DHT22;7171;50.936;6.764;2023-09-19T08:31:46;19.10;99.90
14182;DHT22;7171;50.936;6.764;2023-09-19T08:34:15;19.20;99.90
14182;DHT22;7171;50.936;6.764;2023-09-19T08:36:42;19.20;99.90
14182;DHT22;7171;50.936;6.764;2023-09-19T08:39:11;19.20;99.90
14182;DHT22;7171;50.936;6.764;2023-09-19T08:41:39;19.20;99.90
14182;DHT22;7171;50.936;6.764;2023-09-19T08:44:06;19.30;99.90
14182;DHT22;7171;50.936;6.764;2023-09-19T08:46:34;19.40;99.90
14182;DHT22;7171;50.936;6.764;2023-09-19T08:49:05;19.40;99.90
14182;DHT22;7171;50.936;6.764;2023-09-19T08:51:41;19.50;99.90
14182;DHT22;7171;50.936;6.764;2023-09-19T08:54:21;19.50;99.90
14182;DHT22;7171;50.936;6.764;2023-09-19T08:56:50;19.60;99.90
14182;DHT22;7171;50.936;6.764;2023-09-19T08:59:22;19.70;99.90
14182;DHT22;7171;50.936;6.764;2023-09-19T09:01:51;19.70;99.90
14182;DHT22;7171;50.936;6.764;2023-09-19T09:04:20;19.80;99.90
14182;DHT22;7171;50.936;6.764;2023-09-19T09:06:46;19.80;99.90
14182;DHT22;7171;50.936;6.764;2023-09-19T09:09:20;19.80;99.90
14182;DHT22;7171;50.936;6.764;2023-09-19T09:11:48;19.90;99.90
14182;DHT22;7171;50.936;6.764;2023-09-19T09:14:17;19.90;99.90
14182;DHT22;7171;50.936;6.764;2023-09-19T09:16:45;19.90;99.90
14182;DHT22;7171;50.936;6.764;2023-09-19T09:19:14;19.90;99.90
14182;DHT22;7171;50.936;6.764;2023-09-19T09:21:46;20.00;99.90
14182;DHT22;7171;50.936;6.764;2023-09-19T09:24:29;20.10;99.90
14182;DHT22;7171;50.936;6.764;2023-09-19T09:26:59;20.10;99.90
14182;DHT22;7171;50.936;6.764;2023-09-19T09:29:41;20.10;99.90
14182;DHT22;7171;50.936;6.764;2023-09-19T09:32:21;20.10;99.90
14182;DHT22;7171;50.936;6.764;2023-09-19T09:34:51;20.10;99.90
14182;DHT22;7171;50.936;6.764;2023-09-19T09:37:18;20.10;99.90
14182;DHT22;7171;50.936;6.764;2023-09-19T09:39:51;20.10;99.90
14182;DHT22;7171;50.936;6.764;2023-09-19T09:42:33;20.10;99.90
14182;DHT22;7171;50.936;6.764;2023-09-19T09:45:15;20.10;99.90
14182;DHT22;7171;50.936;6.764;2023-09-19T09:47:44;20.10;99.90
14182;DHT22;7171;50.936;6.764;2023-09-19T09:50:30;20.10;99.90
14182;DHT22;7171;50.936;6.764;2023-09-19T09:53:22;20.10;99.90
14182;DHT22;7171;50.936;6.764;2023-09-19T09:56:02;20.20;99.90
14182;DHT22;7171;50.936;6.764;2023-09-19T09:58:32;20.30;99.90
14182;DHT22;7171;50.936;6.764;2023-09-19T10:00:59;20.40;99.90
14182;DHT22;7171;50.936;6.764;2023-09-19T10:03:32;20.50;99.90
14182;DHT22;7171;50.936;6.764;2023-09-19T10:06:05;20.60;99.90
14182;DHT22;7171;50.936;6.764;2023-09-19T10:08:58;20.60;99.90
14182;DHT22;7171;50.936;6.764;2023-09-19T10:11:33;20.70;99.90
14182;DHT22;7171;50.936;6.764;2023-09-19T10:14:06;20.70;99.90
14182;DHT22;7171;50.936;6.764;2023-09-19T10:16:37;20.70;99.90
14182;DHT22;7171;50.936;6.764;2023-09-19T10:19:07;20.80;99.90
14182;DHT22;7171;50.936;6.764;2023-09-19T10:21:36;20.80;99.90
14182;DHT22;7171;50.936;6.764;2023-09-19T10:24:03;20.90;99.90
14182;DHT22;7171;50.936;6.764;2023-09-19T10:26:36;20.90;99.90
14182;DHT22;7171;50.936;6.764;2023-09-19T10:29:06;21.00;99.90
14182;DHT22;7171;50.936;6.764;2023-09-19T10:31:36;21.00;99.90
14182;DHT22;7171;50.936;6.764;2023-09-19T10:34:07;21.00;99.90
14182;DHT22;7171;50.936;6.764;2023-09-19T10:36:36;21.00;99.90
14182;DHT22;7171;50.936;6.764;2023-09-19T10:39:05;21.00;99.90
14182;DHT22;7171;50.936;6.764;2023-09-19T10:41:36;21.10;99.90
14182;DHT22;7171;50.936;6.764;2023-09-19T10:44:04;21.10;99.90
14182;DHT22;7171;50.936;6.764;2023-09-19T10:46:32;21.10;99.90
14182;DHT22;7171;50.936;6.764;2023-09-19T10:48:59;21.20;99.90
14182;DHT22;7171;50.936;6.764;2023-09-19T10:51:30;21.30;99.90
14182;DHT22;7171;50.936;6.764;2023-09-19T10:54:02;21.40;99.90
14182;DHT22;7171;50.936;6.764;2023-09-19T10:56:34;21.40;99.90
14182;DHT22;7171;50.936;6.764;2023-09-19T10:59:07;21.40;99.90
14182;DHT22;7171;50.936;6.764;2023-09-19T11:01:46;21.40;99.90
14182;DHT22;7171;50.936;6.764;2023-09-19T11:04:24;21.50;99.90
14182;DHT22;7171;50.936;6.764;2023-09-19T11:07:04;21.50;99.90
14182;DHT22;7171;50.936;6.764;2023-09-19T11:09:44;21.50;99.90
14182;DHT22;7171;50.936;6.764;2023-09-19T11:12:24;21.50;99.90
14182;DHT22;7171;50.936;6.764;2023-09-19T11:18:57;21.60;99.90
14182;DHT22;7171;50.936;6.764;2023-09-19T11:21:40;21.60;99.90
14182;DHT22;7171;50.936;6.764;2023-09-19T11:24:28;21.60;99.90
14182;DHT22;7171;50.936;6.764;2023-09-19T11:27:12;21.60;99.90
14182;DHT22;7171;50.936;6.764;2023-09-19T11:29:40;21.70;99.90
14182;DHT22;7171;50.936;6.764;2023-09-19T11:32:07;21.70;99.90
14182;DHT22;7171;50.936;6.764;2023-09-19T11:34:47;21.80;99.90
14182;DHT22;7171;50.936;6.764;2023-09-19T11:40:45;21.90;99.90
14182;DHT22;7171;50.936;6.764;2023-09-19T11:43:33;22.00;99.90
14182;DHT22;7171;50.936;6.764;2023-09-19T11:46:06;22.00;99.90
14182;DHT22;7171;50.936;6.764;2023-09-19T11:48:35;22.00;99.90
14182;DHT22;7171;50.936;6.764;2023-09-19T11:51:13;22.00;99.90
14182;DHT22;7171;50.936;6.764;2023-09-19T11:53:48;22.00;99.90
14182;DHT22;7171;50.936;6.764;2023-09-19T11:56:17;22.10;99.90
14182;DHT22;7171;50.936;6.764;2023-09-19T11:58:44;22.10;99.90
14182;DHT22;7171;50.936;6.764;2023-09-19T12:01:13;22.20;99.90
14182;DHT22;7171;50.936;6.764;2023-09-19T12:03:46;22.40;99.90
14182;DHT22;7171;50.936;6.764;2023-09-19T12:06:15;22.70;99.90
14182;DHT22;7171;50.936;6.764;2023-09-19T12:08:44;22.70;99.90
14182;DHT22;7171;50.936;6.764;2023-09-19T12:11:13;22.60;99.90
14182;DHT22;7171;50.936;6.764;2023-09-19T12:13:42;22.60;99.90
14182;DHT22;7171;50.936;6.764;2023-09-19T12:16:14;22.70;99.90
14182;DHT22;7171;50.936;6.764;2023-09-19T12:18:43;22.70;99.90
14182;DHT22;7171;50.936;6.764;2023-09-19T12:21:30;22.70;99.90
14182;DHT22;7171;50.936;6.764;2023-09-19T12:24:04;22.70;99.90
14182;DHT22;7171;50.936;6.764;2023-09-19T12:26:41;22.70;99.90
14182;DHT22;7171;50.936;6.764;2023-09-19T12:29:16;22.70;99.90
14182;DHT22;7171;50.936;6.764;2023-09-19T12:31:53;22.60;99.90
14182;DHT22;7171;50.936;6.764;2023-09-19T12:34:23;22.60;99.90
14182;DHT22;7171;50.936;6.764;2023-09-19T12:37:05;22.60;99.90
14182;DHT22;7171;50.936;6.764;2023-09-19T12:39:38;22.60;99.90
14182;DHT22;7171;50.936;6.764;2023-09-19T12:42:07;22.60;99.90
14182;DHT22;7171;50.936;6.764;2023-09-19T12:44:36;22.60;99.90
14182;DHT22;7171;50.936;6.764;2023-09-19T12:47:09;22.70;99.90
14182;DHT22;7171;50.936;6.764;2023-09-19T12:49:53;22.70;99.90
14182;DHT22;7171;50.936;6.764;2023-09-19T12:52:24;22.70;99.90
14182;DHT22;7171;50.936;6.764;2023-09-19T12:54:51;22.70;99.90
14182;DHT22;7171;50.936;6.764;2023-09-19T12:57:23;22.70;99.90
14182;DHT22;7171;50.936;6.764;2023-09-19T12:59:52;22.70;99.90
14182;DHT22;7171;50.936;6.764;2023-09-19T13:02:19;22.70;99.90
14182;DHT22;7171;50.936;6.764;2023-09-19T13:04:52;22.70;99.90
14182;DHT22;7171;50.936;6.764;2023-09-19T13:07:41;22.70;99.90
14182;DHT22;7171;50.936;6.764;2023-09-19T13:10:11;22.70;99.90
14182;DHT22;7171;50.936;6.764;2023-09-19T13:12:42;22.80;99.90
14182;DHT22;7171;50.936;6.764;2023-09-19T13:15:14;22.80;99.90
14182;DHT22;7171;50.936;6.764;2023-09-19T13:17:46;22.90;99.90
14182;DHT22;7171;50.936;6.764;2023-09-19T13:20:22;23.00;99.90
14182;DHT22;7171;50.936;6.764;2023-09-19T13:22:54;23.00;99.90
14182;DHT22;7171;50.936;6.764;2023-09-19T13:25:24;23.00;99.90
14182;DHT22;7171;50.936;6.764;2023-09-19T13:27:53;23.00;99.90
14182;DHT22;7171;50.936;6.764;2023-09-19T13:30:22;23.00;99.90
14182;DHT22;7171;50.936;6.764;2023-09-19T13:32:51;22.90;99.90
14182;DHT22;7171;50.936;6.764;2023-09-19T13:35:18;22.80;99.90
14182;DHT22;7171;50.936;6.764;2023-09-19T13:37:46;22.80;99.90
14182;DHT22;7171;50.936;6.764;2023-09-19T13:40:18;22.70;99.90
14182;DHT22;7171;50.936;6.764;2023-09-19T13:42:45;22.70;99.90
14182;DHT22;7171;50.936;6.764;2023-09-19T13:45:11;22.70;99.90
14182;DHT22;7171;50.936;6.764;2023-09-19T13:47:41;22.70;99.90
14182;DHT22;7171;50.936;6.764;2023-09-19T13:50:09;22.70;99.90
14182;DHT22;7171;50.936;6.764;2023-09-19T13:52:36;22.70;99.90
14182;DHT22;7171;50.936;6.764;2023-09-19T13:55:04;22.60;99.90
14182;DHT22;7171;50.936;6.764;2023-09-19T13:57:33;22.60;99.90
14182;DHT22;7171;50.936;6.764;2023-09-19T14:00:00;22.60;99.90
14182;DHT22;7171;50.936;6.764;2023-09-19T14:02:27;22.50;99.90
14182;DHT22;7171;50.936;6.764;2023-09-19T14:04:54;22.50;99.90
14182;DHT22;7171;50.936;6.764;2023-09-19T14:07:21;22.50;99.90
14182;DHT22;7171;50.936;6.764;2023-09-19T14:09:48;22.50;99.90
14182;DHT22;7171;50.936;6.764;2023-09-19T14:12:15;22.60;99.90
14182;DHT22;7171;50.936;6.764;2023-09-19T14:14:43;22.50;99.90
14182;DHT22;7171;50.936;6.764;2023-09-19T14:17:10;22.50;99.90
14182;DHT22;7171;50.936;6.764;2023-09-19T14:19:40;22.40;99.90
14182;DHT22;7171;50.936;6.764;2023-09-19T14:22:09;22.40;99.90
14182;DHT22;7171;50.936;6.764;2023-09-19T14:24:36;22.40;99.90
14182;DHT22;7171;50.936;6.764;2023-09-19T14:27:04;22.40;99.90
14182;DHT22;7171;50.936;6.764;2023-09-19T14:29:32;22.40;99.90
14182;DHT22;7171;50.936;6.764;2023-09-19T14:32:00;22.40;99.90
14182;DHT22;7171;50.936;6.764;2023-09-19T14:34:27;22.30;99.90
14182;DHT22;7171;50.936;6.764;2023-09-19T14:36:53;22.30;99.90
14182;DHT22;7171;50.936;6.764;2023-09-19T14:39:20;22.30;99.90
14182;DHT22;7171;50.936;6.764;2023-09-19T14:41:48;22.30;99.90
14182;DHT22;7171;50.936;6.764;2023-09-19T14:44:15;22.30;99.90
14182;DHT22;7171;50.936;6.764;2023-09-19T14:46:42;22.40;99.90
14182;DHT22;7171;50.936;6.764;2023-09-19T14:49:11;22.40;99.90
14182;DHT22;7171;50.936;6.764;2023-09-19T14:51:38;22.40;99.90
14182;DHT22;7171;50.936;6.764;2023-09-19T14:54:06;22.20;99.90
14182;DHT22;7171;50.936;6.764;2023-09-19T14:56:33;22.30;99.90
14182;DHT22;7171;50.936;6.764;2023-09-19T14:59:00;22.30;99.90
14182;DHT22;7171;50.936;6.764;2023-09-19T15:01:28;22.30;99.90
14182;DHT22;7171;50.936;6.764;2023-09-19T15:03:55;22.20;99.90
14182;DHT22;7171;50.936;6.764;2023-09-19T15:06:23;22.20;99.90
14182;DHT22;7171;50.936;6.764;2023-09-19T15:08:51;22.20;99.90
14182;DHT22;7171;50.936;6.764;2023-09-19T15:11:18;22.10;99.90
14182;DHT22;7171;50.936;6.764;2023-09-19T15:13:46;22.20;99.90
14182;DHT22;7171;50.936;6.764;2023-09-19T15:16:14;22.10;99.90
14182;DHT22;7171;50.936;6.764;2023-09-19T15:18:42;22.10;99.90
14182;DHT22;7171;50.936;6.764;2023-09-19T15:21:10;22.00;99.90
14182;DHT22;7171;50.936;6.764;2023-09-19T15:23:41;22.00;99.90
14182;DHT22;7171;50.936;6.764;2023-09-19T15:26:09;21.90;99.90
14182;DHT22;7171;50.936;6.764;2023-09-19T15:28:37;21.90;99.90
14182;DHT22;7171;50.936;6.764;2023-09-19T15:31:06;21.90;99.90
14182;DHT22;7171;50.936;6.764;2023-09-19T15:33:34;21.90;99.90
14182;DHT22;7171;50.936;6.764;2023-09-19T15:36:02;21.90;99.90
14182;DHT22;7171;50.936;6.764;2023-09-19T15:38:30;21.90;99.90
14182;DHT22;7171;50.936;6.764;2023-09-19T15:40:58;21.90;99.90
14182;DHT22;7171;50.936;6.764;2023-09-19T15:43:25;21.90;99.90
14182;DHT22;7171;50.936;6.764;2023-09-19T15:45:52;21.80;99.90
14182;DHT22;7171;50.936;6.764;2023-09-19T15:48:19;21.80;99.90
14182;DHT22;7171;50.936;6.764;2023-09-19T15:50:47;21.80;99.90
14182;DHT22;7171;50.936;6.764;2023-09-19T15:53:13;21.80;99.90
14182;DHT22;7171;50.936;6.764;2023-09-19T15:55:42;21.80;99.90
14182;DHT22;7171;50.936;6.764;2023-09-19T15:58:10;21.80;99.90
14182;DHT22;7171;50.936;6.764;2023-09-19T16:00:39;21.80;99.90
14182;DHT22;7171;50.936;6.764;2023-09-19T16:03:06;21.80;99.90
14182;DHT22;7171;50.936;6.764;2023-09-19T16:05:35;21.80;99.90
14182;DHT22;7171;50.936;6.764;2023-09-19T16:08:05;21.90;99.90
14182;DHT22;7171;50.936;6.764;2023-09-19T16:10:34;21.90;99.90